This is the latest recevied weather packets stored in our database for station/object EC1DIR-13. If no packets are shown the sender has not sent any weather packets the latest 10 day(s).
| Time | Temp. | Humidity | Pressure | Rain* | Wind** | Luminosity | Snow |
|---|---|---|---|---|---|---|---|
| 1777678247 | 17.22° C | 44% | 1019.8 hPa | 0 mm | - | 0 W/m² | - |
| 1777677345 | 17.78° C | 41% | 1019.9 hPa | 0 mm | - | 0 W/m² | - |
| 1777671032 | 17.78° C | 32% | 1019.3 hPa | 0 mm | - | 0 W/m² | - |
| 1777669232 | 17.78° C | 29% | 1019.5 hPa | 0 mm | - | 0 W/m² | - |
| 1777663835 | 20° C | 19% | 1018.8 hPa | 0 mm | - | 0 W/m² | - |
| 1777661128 | 21.67° C | 17% | 1018.7 hPa | 0 mm | - | 14 W/m² | - |
| 1777659327 | 22.78° C | 9% | 1018.5 hPa | 0 mm | - | 67 W/m² | - |
| 1777658426 | 22.78° C | 10% | 1018.5 hPa | 0 mm | - | 81 W/m² | - |
| 1777642204 | 22.78° C | 12% | 1019.5 hPa | 0 mm | - | 969 W/m² | - |
| 1777638660 | 21.67° C | 18% | 1019.9 hPa | 0 mm | - | 1046 W/m² | - |
| 1777634151 | 20.56° C | 18% | 1020.2 hPa | 0 mm | - | 255 W/m² | - |
| 1777629643 | 19.44° C | 21% | 1020.4 hPa | 0 mm | - | 246 W/m² | - |
| 1777626032 | 19.44° C | 27% | 1020.4 hPa | 0 mm | - | 234 W/m² | - |
| 1777616153 | 11.67° C | 48% | 1019.7 hPa | 0 mm | - | 79 W/m² | - |
| 1777609830 | 11.11° C | 49% | 1019.2 hPa | 0 mm | - | 0 W/m² | - |
| 1777607135 | 11.11° C | 49% | 1019 hPa | 0 mm | - | 0 W/m² | - |
| 1777603527 | 11.11° C | 51% | 1019 hPa | 0 mm | - | 0 W/m² | - |
| 1777596311 | 12.78° C | 45% | 1019.2 hPa | 0 mm | - | 0 W/m² | - |
| 1777589105 | 12.78° C | 45% | 1018.9 hPa | 0 mm | - | 0 W/m² | - |
| 1777588202 | 13.33° C | 46% | 1019 hPa | 0 mm | - | 0 W/m² | - |
| 1777586464 | 13.89° C | 43% | 1018.9 hPa | 0 mm | - | 0 W/m² | - |
| 1777585557 | 13.89° C | 41% | 1019 hPa | 0 mm | - | 0 W/m² | - |
| 1777583758 | 14.44° C | 42% | 1019 hPa | 0 mm | - | 0 W/m² | - |
| 1777581959 | 15° C | 42% | 1019 hPa | 0 mm | - | 0 W/m² | - |
| 1777576549 | 17.78° C | 33% | 1017.7 hPa | 0 mm | - | 0 W/m² | - |
* Rain latest hour (hover to see other rain measurements)
** Current wind speed in m/s (hover to see current wind gust speed)